Time;durP1;ratioP1;P1;durP2;ratioP2;P2;SDS_P1;SDS_P2;PMS_P1;PMS_P2;Temp;Humidity;BMP_temperature;BMP_pressure;BME280_temperature;BME280_humidity;BME280_pressure;Samples;Min_cycle;Max_cycle;Signal;HPM_P1;HPM_P2
2022/04/19 00:00:22;;;;;;;15.45;7.68;;;10.10;99.90;;;;;;5034494;28;20425;-46
2022/04/19 00:02:48;;;;;;;13.45;7.20;;;10.10;99.90;;;;;;5036397;28;20075;-47
2022/04/19 00:05:13;;;;;;;15.07;7.43;;;10.00;99.90;;;;;;5036434;28;20021;-48
2022/04/19 00:07:41;;;;;;;13.13;7.28;;;10.00;99.90;;;;;;5036871;28;20026;-51
2022/04/19 00:10:08;;;;;;;15.68;7.68;;;10.00;99.90;;;;;;5038134;28;20022;-49
2022/04/19 00:12:33;;;;;;;13.57;7.43;;;9.90;99.90;;;;;;5036113;28;20033;-48
2022/04/19 00:14:59;;;;;;;16.20;8.23;;;9.90;99.90;;;;;;5035608;28;20052;-48
2022/04/19 00:17:25;;;;;;;15.93;8.27;;;9.90;99.90;;;;;;5036199;28;20116;-54
2022/04/19 00:19:51;;;;;;;13.90;7.15;;;9.80;99.90;;;;;;5036031;28;20499;-51
2022/04/19 00:22:17;;;;;;;17.35;8.75;;;9.80;99.90;;;;;;5036756;28;20449;-50
2022/04/19 00:24:43;;;;;;;16.25;7.97;;;9.80;99.90;;;;;;5037003;28;20021;-53
2022/04/19 00:27:08;;;;;;;17.98;8.32;;;9.80;99.90;;;;;;5037363;28;20036;-49
2022/04/19 00:29:34;;;;;;;16.70;8.82;;;9.70;99.90;;;;;;5036656;28;20108;-50
2022/04/19 00:31:59;;;;;;;15.60;8.02;;;9.70;99.90;;;;;;5036391;28;20113;-50
2022/04/19 00:34:25;;;;;;;17.30;7.90;;;9.70;99.90;;;;;;5035753;28;20075;-52
2022/04/19 00:36:51;;;;;;;12.23;7.25;;;9.70;99.90;;;;;;5029053;28;20037;-49
2022/04/19 00:39:16;;;;;;;15.63;7.68;;;9.70;99.90;;;;;;5029076;28;20029;-53
2022/04/19 00:41:42;;;;;;;17.48;8.05;;;9.60;99.90;;;;;;5035707;28;20049;-50
2022/04/19 00:44:08;;;;;;;14.93;7.45;;;9.70;99.90;;;;;;5035601;28;20033;-51
2022/04/19 00:46:33;;;;;;;16.70;8.02;;;9.60;99.90;;;;;;5035661;28;20528;-49
2022/04/19 00:48:59;;;;;;;16.08;8.05;;;9.60;99.90;;;;;;5035485;28;20072;-50
2022/04/19 00:51:26;;;;;;;18.10;8.13;;;9.50;99.90;;;;;;5035458;28;20021;-52
2022/04/19 00:53:52;;;;;;;15.10;8.98;;;9.50;99.90;;;;;;5035609;28;20029;-53
2022/04/19 00:56:18;;;;;;;17.95;7.88;;;9.50;99.90;;;;;;5035132;28;20028;-52
2022/04/19 00:58:44;;;;;;;13.68;7.70;;;9.40;99.90;;;;;;5035157;28;20096;-50
2022/04/19 01:01:09;;;;;;;14.85;7.85;;;9.40;99.90;;;;;;5026966;28;20036;-46
2022/04/19 01:03:37;;;;;;;16.58;7.97;;;9.40;99.90;;;;;;5031119;28;20026;-48
2022/04/19 01:06:04;;;;;;;16.33;7.80;;;9.30;99.90;;;;;;5034718;28;20053;-49
2022/04/19 01:08:30;;;;;;;15.02;7.28;;;9.30;99.90;;;;;;5034595;28;20040;-47
2022/04/19 01:13:41;;;;;;;15.38;7.78;;;9.20;99.90;;;;;;5035276;28;20036;-47
2022/04/19 01:16:08;;;;;;;15.02;7.60;;;9.20;99.90;;;;;;5034562;28;20399;-48
2022/04/19 01:18:33;;;;;;;15.65;7.65;;;9.20;99.90;;;;;;5034974;28;20075;-47
2022/04/19 01:20:59;;;;;;;14.75;7.97;;;9.10;99.90;;;;;;5034363;28;20033;-47
2022/04/19 01:23:25;;;;;;;13.68;7.65;;;9.10;99.90;;;;;;5034234;28;20047;-49
2022/04/19 01:25:51;;;;;;;12.20;7.50;;;9.10;99.90;;;;;;5034360;28;20108;-50
2022/04/19 01:28:20;;;;;;;14.13;7.60;;;9.10;99.90;;;;;;5035062;28;20021;-47
2022/04/19 01:30:49;;;;;;;14.70;8.13;;;9.00;99.90;;;;;;5033773;28;20049;-49
2022/04/19 01:33:15;;;;;;;17.75;8.10;;;9.00;99.90;;;;;;5031826;28;20029;-48
2022/04/19 01:35:40;;;;;;;15.35;7.28;;;9.00;99.90;;;;;;5033944;28;20505;-51
2022/04/19 01:38:06;;;;;;;14.75;7.50;;;9.00;99.90;;;;;;5033723;28;20022;-47
2022/04/19 01:40:32;;;;;;;16.65;8.48;;;9.00;99.90;;;;;;5033745;28;20013;-49
2022/04/19 01:43:01;;;;;;;16.70;7.72;;;9.00;99.90;;;;;;5034037;28;20033;-53
2022/04/19 01:45:32;;;;;;;16.80;8.02;;;8.90;99.90;;;;;;5034106;28;20107;-50
2022/04/19 01:47:59;;;;;;;14.43;7.38;;;8.90;99.90;;;;;;5032530;28;20079;-49
2022/04/19 01:50:26;;;;;;;15.40;7.93;;;8.90;99.90;;;;;;5032805;28;20057;-50
2022/04/19 01:52:53;;;;;;;17.08;8.00;;;8.90;99.90;;;;;;5031000;28;20030;-47
2022/04/19 01:55:20;;;;;;;19.77;7.53;;;8.90;99.90;;;;;;5033519;28;20018;-47
2022/04/19 01:57:51;;;;;;;17.15;8.35;;;8.80;99.90;;;;;;5033778;28;20437;-50
2022/04/19 02:00:18;;;;;;;15.02;6.88;;;8.80;99.90;;;;;;5033156;28;20052;-51
2022/04/19 02:02:44;;;;;;;13.35;7.68;;;8.80;99.90;;;;;;5032135;28;20517;-50
2022/04/19 02:05:11;;;;;;;16.45;7.28;;;8.80;99.90;;;;;;5031049;28;20478;-52
2022/04/19 02:07:38;;;;;;;14.30;7.40;;;8.70;99.90;;;;;;5033443;28;20410;-49
2022/04/19 02:10:05;;;;;;;14.20;7.63;;;8.70;99.90;;;;;;5035463;28;20312;-48
2022/04/19 02:12:31;;;;;;;12.68;6.82;;;8.70;99.90;;;;;;5035520;28;20521;-49
2022/04/19 02:14:57;;;;;;;12.05;7.50;;;8.70;99.90;;;;;;5034217;28;20040;-48
2022/04/19 02:17:23;;;;;;;13.95;6.95;;;8.60;99.90;;;;;;5034024;28;20026;-49
2022/04/19 02:22:22;;;;;;;14.77;7.78;;;8.60;99.90;;;;;;5031469;28;20060;-53
2022/04/19 02:24:48;;;;;;;15.40;7.90;;;8.60;99.90;;;;;;5033086;28;20056;-56
2022/04/19 02:27:13;;;;;;;12.52;6.80;;;8.60;99.90;;;;;;5033549;28;20029;-53
2022/04/19 02:29:39;;;;;;;14.55;7.30;;;8.60;99.90;;;;;;5033112;28;20108;-54
2022/04/19 02:32:05;;;;;;;15.23;8.43;;;8.60;99.90;;;;;;5032915;28;20051;-54
2022/04/19 02:34:30;;;;;;;15.85;7.22;;;8.60;99.90;;;;;;5032686;28;20416;-57
2022/04/19 02:36:56;;;;;;;14.75;8.30;;;8.50;99.90;;;;;;5032869;28;20040;-52
2022/04/19 02:39:21;;;;;;;17.20;8.00;;;8.50;99.90;;;;;;5032948;28;20037;-57
2022/04/19 02:41:47;;;;;;;15.50;8.45;;;8.50;99.90;;;;;;5015054;28;20493;-52
2022/04/19 02:44:13;;;;;;;19.20;9.32;;;8.40;99.90;;;;;;5033640;28;20120;-54
2022/04/19 02:46:39;;;;;;;13.15;7.72;;;8.30;99.90;;;;;;5016084;28;20398;-54
2022/04/19 02:49:04;;;;;;;14.77;7.88;;;8.30;99.90;;;;;;5032828;28;20026;-56
2022/04/19 02:51:32;;;;;;;15.10;8.13;;;8.30;99.90;;;;;;5015101;28;20022;-56
2022/04/19 02:53:58;;;;;;;18.08;7.82;;;8.20;99.90;;;;;;5033011;28;20394;-58
2022/04/19 02:56:23;;;;;;;15.57;8.43;;;8.20;99.90;;;;;;5032846;28;20034;-57
2022/04/19 02:58:49;;;;;;;16.83;8.25;;;8.20;99.90;;;;;;5032716;28;20475;-57
2022/04/19 03:01:15;;;;;;;17.65;8.35;;;8.20;99.90;;;;;;5033274;28;20386;-55
2022/04/19 03:03:40;;;;;;;13.95;8.60;;;8.10;99.90;;;;;;5033034;28;20079;-57
2022/04/19 03:06:07;;;;;;;14.43;7.95;;;8.10;99.90;;;;;;5032770;28;20026;-56
2022/04/19 03:08:34;;;;;;;14.25;8.30;;;8.10;99.90;;;;;;5032758;28;20038;-53
2022/04/19 03:11:00;;;;;;;16.60;8.73;;;8.10;99.90;;;;;;5032779;28;20127;-56
2022/04/19 03:13:27;;;;;;;12.93;7.82;;;8.10;99.90;;;;;;5032593;28;20037;-56
2022/04/19 03:15:54;;;;;;;15.88;8.80;;;8.00;99.90;;;;;;5014914;28;20033;-57
2022/04/19 03:18:19;;;;;;;13.25;8.30;;;8.00;99.90;;;;;;5014883;28;20225;-56
2022/04/19 03:20:46;;;;;;;16.10;7.63;;;8.10;99.90;;;;;;5032689;28;20144;-56
2022/04/19 03:28:41;;;;;;;14.95;8.38;;;7.90;99.90;;;;;;5032827;28;20052;-52
2022/04/19 03:31:07;;;;;;;14.43;8.15;;;7.90;99.90;;;;;;5032747;28;20045;-54
2022/04/19 03:33:33;;;;;;;17.50;8.73;;;7.80;99.90;;;;;;5032602;28;20464;-54
2022/04/19 03:35:59;;;;;;;15.45;7.55;;;7.90;99.90;;;;;;5032627;28;20112;-57
2022/04/19 03:38:24;;;;;;;17.90;7.78;;;7.80;99.90;;;;;;5032542;28;20088;-56
2022/04/19 03:40:50;;;;;;;13.93;8.13;;;7.80;99.90;;;;;;5032445;28;20080;-55
2022/04/19 03:43:16;;;;;;;15.32;8.65;;;7.80;99.90;;;;;;5032408;28;20033;-56
2022/04/19 03:45:41;;;;;;;17.10;7.75;;;7.60;99.90;;;;;;5032410;28;20049;-55
2022/04/19 03:48:07;;;;;;;13.95;7.50;;;7.60;99.90;;;;;;5036473;28;20029;-55
2022/04/19 03:50:33;;;;;;;13.90;7.93;;;7.60;99.90;;;;;;5036319;28;20108;-54
2022/04/19 03:52:59;;;;;;;14.23;7.78;;;7.60;99.90;;;;;;5036119;28;20029;-55
2022/04/19 03:55:25;;;;;;;12.60;7.20;;;7.50;99.90;;;;;;5036210;28;20463;-52
2022/04/19 03:57:50;;;;;;;17.60;7.75;;;7.50;99.90;;;;;;5036177;28;20025;-53
2022/04/19 04:00:16;;;;;;;12.43;7.47;;;7.40;99.90;;;;;;5035974;28;20080;-57
2022/04/19 04:02:42;;;;;;;14.52;8.55;;;7.40;99.90;;;;;;5018340;28;20025;-55
2022/04/19 04:05:08;;;;;;;16.17;8.20;;;7.40;99.90;;;;;;5036240;28;20438;-53
2022/04/19 04:07:37;;;;;;;14.32;7.50;;;7.40;99.90;;;;;;5035929;28;20449;-54
2022/04/19 04:10:03;;;;;;;11.95;6.53;;;7.30;99.90;;;;;;5035946;28;20021;-54
2022/04/19 04:12:29;;;;;;;14.70;8.63;;;7.30;99.90;;;;;;5036025;28;20062;-52
2022/04/19 04:14:54;;;;;;;11.77;7.82;;;7.30;99.90;;;;;;5035851;28;20368;-52
2022/04/19 04:17:20;;;;;;;13.85;7.55;;;7.30;99.90;;;;;;5036000;28;20031;-53
2022/04/19 04:19:45;;;;;;;12.93;7.65;;;7.30;99.90;;;;;;5035420;28;20029;-56
2022/04/19 04:22:11;;;;;;;14.90;7.57;;;7.30;99.90;;;;;;5035346;28;20166;-54
2022/04/19 04:24:36;;;;;;;11.85;6.85;;;7.30;99.90;;;;;;5035757;28;20032;-57
2022/04/19 04:27:02;;;;;;;14.25;7.25;;;7.30;99.90;;;;;;5035477;28;20030;-56
2022/04/19 04:29:28;;;;;;;12.68;7.95;;;7.20;99.90;;;;;;5035624;28;20033;-57
2022/04/19 04:31:54;;;;;;;12.68;6.90;;;7.20;99.90;;;;;;5035654;28;20433;-57
2022/04/19 04:34:19;;;;;;;12.50;6.65;;;7.20;99.90;;;;;;5035444;28;20014;-54
2022/04/19 04:36:45;;;;;;;14.02;6.57;;;7.10;99.90;;;;;;5036020;28;20018;-54
2022/04/19 04:39:10;;;;;;;10.35;6.57;;;7.10;99.90;;;;;;5035331;28;20025;-52
2022/04/19 04:41:36;;;;;;;12.35;6.55;;;7.10;99.90;;;;;;5035661;28;20028;-56
2022/04/19 04:44:02;;;;;;;12.52;6.45;;;7.10;99.90;;;;;;5035460;28;20060;-56
2022/04/19 04:51:55;;;;;;;14.13;6.60;;;7.10;99.90;;;;;;5035527;28;20052;-56
2022/04/19 04:54:21;;;;;;;13.30;7.38;;;7.10;99.90;;;;;;5034980;28;20021;-54
2022/04/19 04:56:46;;;;;;;11.68;6.25;;;7.10;99.90;;;;;;5017148;28;20021;-53
2022/04/19 04:59:12;;;;;;;12.23;6.47;;;7.10;99.90;;;;;;5034443;28;20029;-53
2022/04/19 05:01:38;;;;;;;11.77;6.45;;;7.10;99.90;;;;;;5017637;28;20216;-53
2022/04/19 05:04:03;;;;;;;11.40;6.60;;;7.10;99.90;;;;;;5035234;28;20025;-55
2022/04/19 05:06:29;;;;;;;13.93;7.20;;;7.10;99.90;;;;;;5035205;28;20030;-57
2022/04/19 05:08:54;;;;;;;9.82;7.65;;;7.20;99.90;;;;;;5034853;28;20105;-56
2022/04/19 05:11:20;;;;;;;15.35;7.95;;;7.20;99.90;;;;;;5035062;28;20033;-52
2022/04/19 05:13:45;;;;;;;14.38;7.07;;;7.20;99.90;;;;;;5034755;28;20036;-56
2022/04/19 05:16:11;;;;;;;11.98;6.78;;;7.20;99.90;;;;;;5034766;28;20022;-54
2022/04/19 05:18:36;;;;;;;10.48;6.75;;;7.20;99.90;;;;;;5016640;28;20026;-54
2022/04/19 05:21:02;;;;;;;11.00;7.00;;;7.10;99.90;;;;;;5034314;28;20041;-54
2022/04/19 05:23:28;;;;;;;9.55;6.45;;;7.10;99.90;;;;;;5034299;28;20033;-51
2022/04/19 05:25:53;;;;;;;11.25;6.53;;;7.10;99.90;;;;;;5034441;28;20025;-55
2022/04/19 05:28:19;;;;;;;10.90;6.60;;;7.20;99.90;;;;;;5034416;28;20021;-52
2022/04/19 05:30:44;;;;;;;11.90;6.43;;;7.20;99.90;;;;;;5034229;28;20033;-53
2022/04/19 05:33:11;;;;;;;12.68;6.75;;;7.20;99.90;;;;;;5034359;28;20057;-53
2022/04/19 05:35:38;;;;;;;11.10;6.63;;;7.20;99.90;;;;;;5034397;28;20030;-55
2022/04/19 05:38:04;;;;;;;10.50;5.38;;;7.30;99.90;;;;;;5034652;28;20026;-51
2022/04/19 05:40:29;;;;;;;9.43;5.93;;;7.30;99.90;;;;;;5034249;28;20440;-54
2022/04/19 05:42:55;;;;;;;13.15;6.25;;;7.40;99.90;;;;;;5034098;28;20104;-54
2022/04/19 05:45:20;;;;;;;9.32;5.47;;;7.40;99.90;;;;;;5034001;28;20021;-54
2022/04/19 05:47:46;;;;;;;11.38;6.30;;;7.50;99.90;;;;;;5033906;28;20021;-55
2022/04/19 05:50:12;;;;;;;8.50;5.22;;;7.50;99.90;;;;;;5033947;28;20032;-52
2022/04/19 05:52:37;;;;;;;9.32;5.93;;;7.60;99.90;;;;;;5033869;28;20025;-55
2022/04/19 05:55:04;;;;;;;10.25;6.13;;;7.70;99.90;;;;;;5034249;28;20478;-55
2022/04/19 05:57:30;;;;;;;7.72;5.90;;;7.70;99.90;;;;;;5034152;28;20393;-57
2022/04/19 05:59:55;;;;;;;11.38;5.35;;;7.90;99.90;;;;;;5034239;28;20053;-56
2022/04/19 06:05:05;;;;;;;6.22;4.95;;;8.00;99.90;;;;;;5034354;28;20040;-56
2022/04/19 06:07:31;;;;;;;12.15;5.13;;;8.30;99.90;;;;;;5036476;28;20025;-57
2022/04/19 06:09:58;;;;;;;7.20;4.40;;;8.40;99.90;;;;;;5034415;28;20383;-55
2022/04/19 06:12:24;;;;;;;7.97;4.90;;;8.50;99.90;;;;;;5033759;28;20029;-53
2022/04/19 06:14:49;;;;;;;5.80;4.30;;;8.60;99.90;;;;;;5034062;28;20497;-56
2022/04/19 06:17:21;;;;;;;5.57;3.90;;;8.80;99.90;;;;;;5033926;28;20483;-55
2022/04/19 06:19:46;;;;;;;6.60;4.18;;;8.90;99.90;;;;;;5034289;28;20087;-57
2022/04/19 06:22:13;;;;;;;5.75;3.90;;;9.00;99.90;;;;;;5033883;28;20037;-56
2022/04/19 06:24:38;;;;;;;7.05;4.15;;;9.20;99.90;;;;;;5034450;28;20440;-58
2022/04/19 06:27:04;;;;;;;6.35;4.20;;;9.30;99.90;;;;;;5035497;28;20078;-55
2022/04/19 06:29:30;;;;;;;12.88;5.13;;;9.40;99.90;;;;;;5034751;28;20525;-58
2022/04/19 06:31:56;;;;;;;5.57;3.70;;;9.40;99.90;;;;;;5033993;28;20018;-57
2022/04/19 06:34:21;;;;;;;6.05;3.17;;;9.60;99.90;;;;;;5034262;28;20486;-56
2022/04/19 06:36:47;;;;;;;5.05;3.30;;;9.70;99.90;;;;;;5016393;28;20026;-57
2022/04/19 06:39:13;;;;;;;4.90;3.67;;;9.80;99.90;;;;;;5035185;28;20036;-58
2022/04/19 06:41:41;;;;;;;5.13;3.50;;;9.90;99.90;;;;;;5033818;28;20033;-58
2022/04/19 06:44:08;;;;;;;4.75;3.03;;;10.00;99.90;;;;;;5033086;28;20109;-58
2022/04/19 06:46:36;;;;;;;6.50;3.17;;;10.00;99.90;;;;;;5033365;28;20029;-57
2022/04/19 06:49:02;;;;;;;5.10;3.13;;;10.10;99.90;;;;;;5033317;28;20467;-57
2022/04/19 06:51:29;;;;;;;5.78;3.38;;;10.20;99.90;;;;;;5032751;28;20022;-56
2022/04/19 06:53:56;;;;;;;5.07;3.30;;;10.10;99.90;;;;;;5033269;28;20132;-57
2022/04/19 06:56:21;;;;;;;9.02;3.38;;;10.20;99.90;;;;;;5033289;28;20033;-57
2022/04/19 06:58:48;;;;;;;5.30;3.08;;;10.30;99.90;;;;;;5032762;28;20441;-55
2022/04/19 07:01:14;;;;;;;6.82;3.10;;;10.40;99.90;;;;;;5015273;28;20037;-54
2022/04/19 07:03:39;;;;;;;5.20;2.80;;;10.50;99.90;;;;;;5015152;28;20112;-58
2022/04/19 07:06:08;;;;;;;4.80;3.38;;;10.50;99.90;;;;;;5032971;28;20032;-58
2022/04/19 07:08:34;;;;;;;3.80;2.75;;;10.70;99.90;;;;;;5016243;28;20029;-57
2022/04/19 07:11:00;;;;;;;3.15;2.67;;;10.80;99.90;;;;;;5033348;28;20022;-57
2022/04/19 07:13:26;;;;;;;3.83;3.10;;;10.80;99.90;;;;;;5033109;28;20017;-57
2022/04/19 07:15:53;;;;;;;5.30;3.20;;;10.90;99.90;;;;;;5032860;28;20060;-57
2022/04/19 07:18:22;;;;;;;4.57;3.08;;;10.90;99.90;;;;;;5032751;28;20036;-56
2022/04/19 07:29:01;;;;;;;3.65;2.60;;;11.00;99.90;;;;;;5037098;28;20033;-58
2022/04/19 07:31:27;;;;;;;3.00;2.58;;;11.20;99.90;;;;;;5036768;28;20017;-59
2022/04/19 07:33:53;;;;;;;3.22;2.50;;;11.20;99.90;;;;;;5018948;28;20029;-59
2022/04/19 07:36:19;;;;;;;5.97;2.17;;;11.20;99.90;;;;;;5036640;28;20365;-57
2022/04/19 07:38:45;;;;;;;2.67;2.00;;;11.30;99.90;;;;;;5036828;28;20022;-57
2022/04/19 07:41:11;;;;;;;4.97;2.75;;;11.30;99.90;;;;;;5036909;28;20022;-55
2022/04/19 07:43:37;;;;;;;3.63;1.83;;;11.30;98.40;;;;;;5036520;28;20097;-55
2022/04/19 07:46:04;;;;;;;3.72;1.73;;;11.30;97.10;;;;;;5036497;28;20548;-58
2022/04/19 07:48:30;;;;;;;2.63;1.95;;;11.40;96.30;;;;;;5037025;28;20026;-56
2022/04/19 07:50:56;;;;;;;4.22;1.85;;;11.40;96.70;;;;;;5036740;28;20026;-57
2022/04/19 07:53:22;;;;;;;2.45;1.67;;;11.50;97.40;;;;;;5036326;28;20052;-56
2022/04/19 07:55:48;;;;;;;2.60;1.67;;;11.60;96.50;;;;;;5036810;28;20017;-55
2022/04/19 07:58:14;;;;;;;2.40;1.60;;;11.80;96.80;;;;;;5036409;28;20033;-58
2022/04/19 08:00:40;;;;;;;2.25;1.75;;;12.00;96.10;;;;;;5036479;28;20036;-57
2022/04/19 08:03:05;;;;;;;6.57;1.40;;;12.10;96.80;;;;;;5036269;28;20026;-58
2022/04/19 08:05:31;;;;;;;3.70;1.60;;;12.30;96.20;;;;;;5036330;28;20041;-56
2022/04/19 08:07:57;;;;;;;3.30;1.95;;;12.50;95.10;;;;;;5036167;28;20407;-56
2022/04/19 08:10:23;;;;;;;1.77;1.58;;;12.50;94.60;;;;;;5036223;28;20021;-56
2022/04/19 08:12:49;;;;;;;2.88;1.70;;;12.50;95.00;;;;;;5029619;28;20040;-56
2022/04/19 08:15:15;;;;;;;5.63;1.80;;;12.60;94.70;;;;;;5036054;28;20033;-54
2022/04/19 08:17:40;;;;;;;2.20;1.70;;;12.70;94.30;;;;;;5035950;28;20100;-55
2022/04/19 08:20:07;;;;;;;1.40;1.30;;;12.80;94.40;;;;;;5035959;28;20088;-57
2022/04/19 08:22:35;;;;;;;2.55;1.48;;;12.90;93.10;;;;;;5059284;22;20148;-50
2022/04/19 08:25:01;;;;;;;4.10;1.63;;;13.10;93.40;;;;;;5038306;28;20055;-53
2022/04/19 08:27:26;;;;;;;2.42;1.70;;;13.10;93.00;;;;;;5056149;28;20029;-48
2022/04/19 08:29:52;;;;;;;2.72;1.40;;;13.20;93.10;;;;;;5059348;28;20028;-51
2022/04/19 08:32:17;;;;;;;2.45;1.77;;;13.30;92.70;;;;;;5075388;28;20456;-51
2022/04/19 08:34:43;;;;;;;3.00;1.58;;;13.30;92.30;;;;;;5057510;28;20059;-50
2022/04/19 08:37:09;;;;;;;2.55;1.77;;;13.40;92.50;;;;;;5062677;28;20035;-50
2022/04/19 08:39:36;;;;;;;2.50;1.40;;;13.40;92.00;;;;;;5056843;28;20016;-51
2022/04/19 08:42:04;;;;;;;3.40;1.40;;;13.50;92.10;;;;;;5056108;28;20453;-51
2022/04/19 08:44:29;;;;;;;2.15;1.40;;;13.50;92.20;;;;;;5055197;28;20033;-50
2022/04/19 08:46:57;;;;;;;2.70;1.70;;;13.60;92.10;;;;;;5055472;28;20540;-50
2022/04/19 08:49:24;;;;;;;4.03;1.55;;;13.60;91.30;;;;;;5055164;28;20025;-50
2022/04/19 08:51:50;;;;;;;2.88;1.67;;;13.60;91.70;;;;;;5054864;28;20074;-48
2022/04/19 08:59:44;;;;;;;3.13;1.70;;;14.00;90.50;;;;;;5054725;28;20028;-51
2022/04/19 09:02:25;;;;;;;2.88;1.80;;;14.10;90.50;;;;;;5060281;28;20025;-52
2022/04/19 09:04:52;;;;;;;3.40;2.10;;;14.20;90.60;;;;;;5054913;28;20033;-48
2022/04/19 09:07:18;;;;;;;5.95;2.60;;;14.10;90.90;;;;;;5054658;28;20033;-49
2022/04/19 09:10:00;;;;;;;4.75;2.38;;;13.90;91.80;;;;;;5054511;28;20104;-49
2022/04/19 09:12:27;;;;;;;4.57;2.55;;;13.80;92.30;;;;;;5054900;28;20025;-50
2022/04/19 09:15:00;;;;;;;5.47;3.03;;;13.90;92.90;;;;;;5054871;28;20049;-51
2022/04/19 09:17:31;;;;;;;6.15;2.70;;;13.90;92.60;;;;;;5064399;28;20383;-50
2022/04/19 09:20:19;;;;;;;3.72;2.83;;;13.80;92.90;;;;;;5054232;28;20087;-52
2022/04/19 09:22:48;;;;;;;8.25;3.10;;;13.80;92.80;;;;;;5054561;28;20539;-50
2022/04/19 09:25:15;;;;;;;6.68;2.92;;;13.80;93.00;;;;;;5054298;28;20390;-50
2022/04/19 09:27:45;;;;;;;5.15;2.78;;;13.80;93.20;;;;;;5054732;28;20162;-51
2022/04/19 09:30:24;;;;;;;6.57;2.58;;;13.70;93.40;;;;;;5054176;28;20025;-50
2022/04/19 09:33:11;;;;;;;5.25;3.17;;;13.90;93.60;;;;;;5054393;28;20036;-50
2022/04/19 09:35:53;;;;;;;5.85;3.25;;;14.00;93.10;;;;;;5054154;28;20482;-52
2022/04/19 09:38:38;;;;;;;4.38;2.80;;;14.10;93.20;;;;;;5053947;28;20504;-51
2022/04/19 09:41:05;;;;;;;4.78;3.05;;;14.20;93.00;;;;;;5054332;28;20362;-51
2022/04/19 09:43:32;;;;;;;7.82;3.25;;;14.20;92.80;;;;;;5037692;28;20065;-52
2022/04/19 09:46:02;;;;;;;4.18;2.80;;;14.40;92.30;;;;;;5046848;28;20021;-50
2022/04/19 09:48:29;;;;;;;4.68;2.92;;;14.50;92.30;;;;;;5073903;28;20095;-52
2022/04/19 09:51:09;;;;;;;7.10;3.03;;;14.70;92.20;;;;;;5072396;28;20052;-49
2022/04/19 09:53:42;;;;;;;5.88;3.13;;;14.80;92.00;;;;;;5074016;28;20083;-49
2022/04/19 09:56:21;;;;;;;9.52;2.92;;;15.00;90.80;;;;;;5073615;28;20029;-49
2022/04/19 09:58:48;;;;;;;4.95;2.90;;;15.10;90.50;;;;;;5073558;28;20423;-51
2022/04/19 10:09:39;;;;;;;5.20;3.33;;;15.00;89.50;;;;;;5073129;28;20384;-48
2022/04/19 10:12:12;;;;;;;6.38;2.42;;;14.80;87.70;;;;;;5072355;28;20063;-48
2022/04/19 10:14:37;;;;;;;6.40;2.78;;;14.80;90.20;;;;;;5035359;28;20078;-49
2022/04/19 10:17:04;;;;;;;5.95;2.58;;;14.80;89.20;;;;;;5053285;28;20099;-48
2022/04/19 10:19:30;;;;;;;4.45;3.35;;;14.70;89.60;;;;;;5053137;28;20025;-50
2022/04/19 10:22:02;;;;;;;4.50;2.67;;;14.70;89.90;;;;;;5051791;28;20036;-48
2022/04/19 10:24:28;;;;;;;6.43;2.70;;;14.80;89.80;;;;;;5054149;28;20694;-49
2022/04/19 10:26:54;;;;;;;9.07;2.83;;;15.00;90.10;;;;;;5072034;28;20146;-48
2022/04/19 10:29:20;;;;;;;5.72;3.72;;;15.20;90.20;;;;;;5070296;28;20462;-48
2022/04/19 10:32:07;;;;;;;4.80;2.83;;;15.40;89.50;;;;;;5072393;28;20017;-48
2022/04/19 10:34:35;;;;;;;5.22;2.97;;;15.50;89.50;;;;;;5053828;28;20020;-48
2022/04/19 10:37:20;;;;;;;6.40;3.10;;;15.70;89.30;;;;;;5071975;28;20024;-46
2022/04/19 10:39:47;;;;;;;3.70;2.78;;;15.80;88.00;;;;;;5071878;28;20173;-49
2022/04/19 10:42:37;;;;;;;6.18;2.90;;;15.80;87.30;;;;;;5071401;28;20103;-50
2022/04/19 10:45:12;;;;;;;4.53;2.80;;;15.90;87.40;;;;;;5053725;28;20062;-51
2022/04/19 10:47:53;;;;;;;3.20;2.50;;;16.00;86.20;;;;;;5068048;28;20042;-50
2022/04/19 10:50:36;;;;;;;3.75;2.50;;;16.10;85.40;;;;;;5052009;28;20021;-50
2022/04/19 10:53:07;;;;;;;7.60;2.78;;;16.20;85.00;;;;;;5069036;28;20031;-50
2022/04/19 10:55:34;;;;;;;6.97;3.50;;;16.30;82.70;;;;;;5072051;28;20059;-51
2022/04/19 10:58:16;;;;;;;4.32;2.53;;;16.00;83.30;;;;;;5071754;28;20036;-51
2022/04/19 11:00:42;;;;;;;6.68;2.65;;;15.90;84.70;;;;;;5070800;28;20108;-49
2022/04/19 11:03:08;;;;;;;6.00;2.65;;;16.00;84.40;;;;;;5070588;28;20183;-51
2022/04/19 11:05:41;;;;;;;5.28;2.65;;;16.00;84.30;;;;;;5071378;28;20013;-50
2022/04/19 11:08:25;;;;;;;5.65;2.83;;;16.10;84.70;;;;;;5072821;28;20434;-54
2022/04/19 11:11:02;;;;;;;5.95;2.85;;;16.10;84.70;;;;;;5072297;28;20030;-49
2022/04/19 11:13:34;;;;;;;3.80;1.92;;;16.30;83.70;;;;;;5068957;28;20101;-51
2022/04/19 11:16:04;;;;;;;4.20;2.50;;;16.30;83.30;;;;;;5070312;28;20119;-50
2022/04/19 11:18:34;;;;;;;7.70;2.88;;;16.30;83.60;;;;;;5070597;28;20558;-51
2022/04/19 11:21:08;;;;;;;5.20;2.83;;;16.20;84.10;;;;;;5072349;28;20485;-50
2022/04/19 11:23:41;;;;;;;5.35;2.97;;;16.20;83.90;;;;;;5068911;28;20489;-50
2022/04/19 11:26:10;;;;;;;4.40;2.15;;;16.40;83.30;;;;;;5069719;28;20043;-54
2022/04/19 11:28:35;;;;;;;4.10;2.38;;;16.30;84.00;;;;;;5069092;28;20064;-52
2022/04/19 11:31:01;;;;;;;4.32;2.50;;;16.10;85.00;;;;;;5071505;28;20056;-49
2022/04/19 11:33:29;;;;;;;4.43;2.58;;;16.10;85.20;;;;;;5069575;28;20453;-51
2022/04/19 11:36:16;;;;;;;5.25;2.50;;;16.30;85.30;;;;;;5071953;28;20405;-49
2022/04/19 11:38:46;;;;;;;3.35;2.25;;;16.20;83.70;;;;;;5071926;28;20032;-53
2022/04/19 11:46:45;;;;;;;3.40;2.67;;;16.20;84.30;;;;;;5071571;28;20023;-49
2022/04/19 11:49:16;;;;;;;6.50;2.67;;;16.40;84.30;;;;;;5071538;28;20086;-49
2022/04/19 11:51:49;;;;;;;;;;;16.50;83.90;;;;;;5069759;28;20054;-50
2022/04/19 11:54:30;;;;;;;4.35;3.00;;;16.60;83.90;;;;;;5069802;28;19905;-51
2022/04/19 11:56:56;;;;;;;4.68;2.70;;;16.60;84.20;;;;;;5068917;28;20025;-53
2022/04/19 11:59:26;;;;;;;4.95;2.78;;;16.70;84.20;;;;;;5068116;28;20029;-51
2022/04/19 12:01:52;;;;;;;4.70;3.00;;;16.70;83.90;;;;;;5067553;28;20482;-51
2022/04/19 12:04:18;;;;;;;5.32;3.00;;;16.70;84.30;;;;;;5052920;28;20029;-50
2022/04/19 12:06:52;;;;;;;5.72;3.25;;;16.90;84.70;;;;;;5051832;28;20466;-50
2022/04/19 12:09:18;;;;;;;4.50;3.28;;;16.90;83.50;;;;;;5054873;28;20025;-51
2022/04/19 12:11:47;;;;;;;10.60;3.78;;;16.90;82.70;;;;;;5055945;28;20070;-51
2022/04/19 12:14:27;;;;;;;5.93;3.45;;;17.10;83.10;;;;;;5055932;28;20052;-52
2022/04/19 12:16:59;;;;;;;5.15;3.17;;;17.20;81.30;;;;;;5055638;28;20025;-52
2022/04/19 12:19:34;;;;;;;8.48;3.63;;;17.00;82.40;;;;;;5057148;28;20167;-51
2022/04/19 12:22:00;;;;;;;6.22;3.75;;;16.90;82.70;;;;;;5075414;28;20029;-50
2022/04/19 12:24:31;;;;;;;5.63;3.45;;;17.00;83.50;;;;;;5075817;28;20390;-50
2022/04/19 12:27:07;;;;;;;5.43;3.25;;;17.00;82.10;;;;;;5075442;28;20028;-53
2022/04/19 12:29:35;;;;;;;7.18;3.53;;;17.00;83.00;;;;;;5075500;28;20020;-50
2022/04/19 12:32:01;;;;;;;5.00;3.40;;;17.10;82.20;;;;;;5072271;28;20025;-51
2022/04/19 12:34:35;;;;;;;6.35;3.30;;;17.20;82.20;;;;;;5072894;28;20103;-54
2022/04/19 12:37:12;;;;;;;4.95;3.00;;;17.40;82.10;;;;;;5073382;28;20047;-51
2022/04/19 12:39:39;;;;;;;4.55;2.75;;;17.50;81.00;;;;;;5072938;28;20025;-50
2022/04/19 12:42:09;;;;;;;7.07;3.47;;;17.60;81.10;;;;;;5074730;28;20028;-50
2022/04/19 12:44:37;;;;;;;10.07;4.20;;;17.50;80.40;;;;;;5072884;28;20021;-52
2022/04/19 12:47:25;;;;;;;10.05;3.05;;;17.30;80.70;;;;;;5074491;28;20028;-49
2022/04/19 12:49:51;;;;;;;4.22;3.15;;;17.10;81.40;;;;;;5073409;28;20020;-49
2022/04/19 12:52:16;;;;;;;10.27;4.53;;;17.10;81.90;;;;;;5074052;28;20023;-51
2022/04/19 12:54:44;;;;;;;5.25;3.13;;;17.10;82.20;;;;;;5074525;28;20446;-51
2022/04/19 12:57:23;;;;;;;6.78;3.30;;;17.00;82.80;;;;;;5073449;28;20078;-52
2022/04/19 12:59:50;;;;;;;4.47;3.08;;;17.00;83.20;;;;;;5073886;28;20421;-54
2022/04/19 13:02:18;;;;;;;7.90;3.22;;;17.10;83.00;;;;;;5069441;28;20112;-51
2022/04/19 13:04:45;;;;;;;7.22;3.40;;;17.20;83.00;;;;;;5048234;28;20035;-52
2022/04/19 13:12:39;;;;;;;4.22;2.67;;;17.30;81.60;;;;;;5073999;28;20070;-52
2022/04/19 13:15:05;;;;;;;4.53;2.75;;;17.40;82.20;;;;;;5074349;28;20025;-50
2022/04/19 13:17:34;;;;;;;3.88;2.42;;;17.40;82.90;;;;;;5072655;28;20411;-50
2022/04/19 13:20:00;;;;;;;8.70;3.33;;;17.40;82.90;;;;;;5070122;28;20029;-49
2022/04/19 13:22:26;;;;;;;6.32;3.08;;;17.40;82.70;;;;;;5073393;28;20078;-53
2022/04/19 13:24:52;;;;;;;3.60;2.53;;;17.50;83.30;;;;;;5071131;28;20099;-49
2022/04/19 13:27:18;;;;;;;3.20;2.35;;;17.60;82.70;;;;;;5073772;28;20048;-50
2022/04/19 13:29:44;;;;;;;4.38;2.75;;;17.60;82.30;;;;;;5073982;28;20024;-50
2022/04/19 13:32:11;;;;;;;3.67;2.35;;;17.60;81.80;;;;;;5071672;28;20020;-50
2022/04/19 13:34:38;;;;;;;6.43;3.35;;;17.60;81.80;;;;;;5073458;28;20112;-49
2022/04/19 13:37:04;;;;;;;7.07;3.40;;;17.50;82.10;;;;;;5074041;28;20405;-51
2022/04/19 13:39:30;;;;;;;5.82;2.95;;;17.40;82.90;;;;;;5074601;28;20158;-52
2022/04/19 13:41:56;;;;;;;7.18;3.70;;;17.40;82.50;;;;;;5073580;28;20468;-49